createdAt,value
2022-07-30T00:02:22.290Z,1.53
2022-07-30T00:05:05.415Z,1.30
2022-07-30T00:08:07.139Z,1.20
2022-07-30T00:10:50.151Z,1.23
2022-07-30T00:13:32.167Z,1.63
2022-07-30T00:16:13.998Z,1.20
2022-07-30T00:19:15.806Z,1.50
2022-07-30T00:21:57.658Z,1.90
2022-07-30T00:24:39.479Z,1.87
2022-07-30T00:27:21.280Z,1.77
2022-07-30T00:30:23.079Z,1.30
2022-07-30T00:33:04.952Z,2.07
2022-07-30T00:35:50.097Z,1.43
2022-07-30T00:38:31.909Z,1.07
2022-07-30T00:41:33.730Z,1.60
2022-07-30T00:44:15.559Z,1.23
2022-07-30T00:47:17.291Z,1.30
2022-07-30T00:49:59.233Z,1.30
2022-07-30T00:52:42.109Z,1.00
2022-07-30T00:55:23.909Z,1.33
2022-07-30T00:58:25.634Z,1.30
2022-07-30T01:01:07.537Z,1.30
2022-07-30T01:03:49.435Z,1.37
2022-07-30T01:06:31.271Z,1.50
2022-07-30T01:09:33.070Z,1.30
2022-07-30T01:12:19.826Z,1.40
2022-07-30T01:15:03.583Z,1.33
2022-07-30T01:17:52.724Z,1.30
2022-07-30T01:21:07.515Z,1.30
2022-07-30T01:23:53.534Z,2.13
2022-07-30T01:26:35.814Z,1.73
2022-07-30T01:29:18.878Z,1.57
2022-07-30T01:32:21.866Z,1.10
2022-07-30T01:35:06.373Z,1.60
2022-07-30T01:37:49.353Z,1.93
2022-07-30T01:40:32.538Z,1.80
2022-07-30T01:43:35.437Z,1.40
2022-07-30T01:46:19.143Z,1.80
2022-07-30T01:49:02.603Z,1.63
2022-07-30T01:51:47.687Z,1.77
2022-07-30T01:54:50.924Z,1.73
2022-07-30T01:57:35.789Z,1.40
2022-07-30T02:00:18.455Z,1.63
2022-07-30T02:03:00.326Z,1.57
2022-07-30T02:06:05.576Z,1.60
2022-07-30T02:09:01.459Z,1.30
2022-07-30T02:12:05.934Z,1.20
2022-07-30T02:15:00.884Z,1.27
2022-07-30T02:18:04.635Z,1.23
2022-07-30T02:20:54.237Z,1.30
2022-07-30T02:23:44.148Z,1.30
2022-07-30T02:26:27.696Z,1.30
2022-07-30T02:29:32.225Z,1.47
2022-07-30T02:32:20.223Z,1.17
2022-07-30T02:35:10.382Z,1.50
2022-07-30T02:37:54.547Z,1.30
2022-07-30T02:40:58.089Z,1.50
2022-07-30T02:43:42.523Z,1.20
2022-07-30T02:46:25.480Z,1.43
2022-07-30T02:49:08.420Z,1.10
2022-07-30T02:52:13.565Z,1.57
2022-07-30T02:54:57.626Z,1.57
2022-07-30T02:57:43.444Z,1.60
2022-07-30T03:00:27.244Z,1.23
2022-07-30T03:03:29.657Z,1.70
2022-07-30T03:06:14.826Z,1.30
2022-07-30T03:08:57.710Z,1.60
2022-07-30T03:11:40.982Z,1.37
2022-07-30T03:14:43.286Z,1.60
2022-07-30T03:17:28.965Z,1.47
2022-07-30T03:20:18.508Z,1.57
2022-07-30T03:23:02.988Z,1.23
2022-07-30T03:26:05.586Z,1.50
2022-07-30T03:28:49.145Z,1.70
2022-07-30T03:31:36.462Z,1.43
2022-07-30T03:34:21.569Z,1.40
2022-07-30T03:37:24.322Z,1.47
2022-07-30T03:40:08.353Z,1.73
2022-07-30T03:42:50.791Z,1.33
2022-07-30T03:45:33.302Z,1.57
2022-07-30T03:48:35.601Z,1.50
2022-07-30T03:51:17.913Z,1.63
2022-07-30T03:54:00.099Z,1.40
2022-07-30T03:56:42.640Z,1.60
2022-07-30T03:59:45.116Z,1.80
2022-07-30T04:02:26.950Z,1.57
2022-07-30T04:05:08.999Z,1.33
2022-07-30T04:07:50.847Z,1.50
2022-07-30T04:10:52.666Z,1.43
2022-07-30T04:13:34.488Z,1.63
2022-07-30T04:16:39.337Z,1.60
2022-07-30T04:19:29.568Z,1.30
2022-07-30T04:22:32.541Z,1.60
2022-07-30T04:25:18.455Z,1.50
2022-07-30T04:28:06.323Z,1.90
2022-07-30T04:30:48.288Z,1.60
2022-07-30T04:33:50.082Z,1.53
2022-07-30T04:36:33.237Z,1.80
2022-07-30T04:39:15.039Z,1.60
2022-07-30T04:41:57.778Z,1.53
2022-07-30T04:44:59.522Z,1.23
2022-07-30T04:47:41.321Z,1.87
2022-07-30T04:50:28.011Z,1.57
2022-07-30T04:53:11.092Z,1.67
2022-07-30T04:56:13.874Z,1.50
2022-07-30T04:58:57.545Z,1.60
2022-07-30T05:01:41.660Z,1.33
2022-07-30T05:04:25.039Z,1.20
2022-07-30T05:07:27.283Z,1.23
2022-07-30T05:10:10.933Z,1.33
2022-07-30T05:12:52.720Z,1.67
2022-07-30T05:15:37.425Z,1.70
2022-07-30T05:18:39.332Z,1.50
2022-07-30T05:21:21.272Z,1.77
2022-07-30T05:24:03.153Z,1.60
2022-07-30T05:26:45.351Z,1.50
2022-07-30T05:29:47.122Z,1.37
2022-07-30T05:32:29.478Z,1.50
2022-07-30T05:35:13.335Z,1.77
2022-07-30T05:37:55.125Z,1.73
2022-07-30T05:40:56.898Z,1.80
2022-07-30T05:43:38.689Z,1.60
2022-07-30T05:46:20.509Z,1.80
2022-07-30T05:49:02.465Z,1.40
2022-07-30T05:52:04.405Z,1.67
2022-07-30T05:54:48.121Z,1.70
2022-07-30T05:57:29.981Z,1.77
2022-07-30T06:00:12.894Z,1.43
2022-07-30T06:03:15.130Z,1.90
2022-07-30T06:05:57.002Z,1.90
2022-07-30T06:08:38.820Z,1.87
2022-07-30T06:11:20.622Z,2.13
2022-07-30T06:14:22.350Z,1.80
2022-07-30T06:17:04.408Z,2.10
2022-07-30T06:19:46.360Z,2.70
2022-07-30T06:22:28.192Z,2.10
2022-07-30T06:25:30.022Z,2.77
2022-07-30T06:28:35.215Z,4.63
2022-07-30T06:31:14.905Z,7.83
2022-07-30T06:33:56.757Z,9.30
2022-07-30T06:36:58.856Z,5.33
2022-07-30T06:39:58.001Z,4.30
2022-07-30T06:42:40.258Z,3.00
2022-07-30T06:45:22.188Z,2.90
2022-07-30T06:48:24.031Z,2.00
2022-07-30T06:51:05.931Z,1.93
2022-07-30T06:53:48.297Z,1.97
2022-07-30T06:56:30.097Z,1.97
2022-07-30T06:59:13.901Z,1.50
2022-07-30T07:01:55.992Z,1.70
2022-07-30T07:04:57.736Z,1.60
2022-07-30T07:07:44.452Z,1.57
2022-07-30T07:10:34.267Z,1.90
2022-07-30T07:13:16.586Z,2.10
2022-07-30T07:16:21.796Z,1.67
2022-07-30T07:19:03.982Z,2.00
2022-07-30T07:21:45.809Z,1.90
2022-07-30T07:24:27.727Z,1.97
2022-07-30T07:27:29.467Z,1.80
2022-07-30T07:30:11.765Z,1.83
2022-07-30T07:32:53.534Z,1.77
2022-07-30T07:35:48.499Z,2.03
2022-07-30T07:38:51.667Z,2.10
2022-07-30T07:41:48.773Z,1.90
2022-07-30T07:44:31.302Z,2.00
2022-07-30T07:47:13.104Z,1.50
2022-07-30T07:50:16.092Z,2.00
2022-07-30T07:52:57.917Z,1.93
2022-07-30T07:55:40.270Z,2.27
2022-07-30T07:58:26.171Z,2.20
2022-07-30T08:01:28.997Z,2.07
2022-07-30T08:04:10.869Z,2.10
2022-07-30T08:06:52.676Z,2.10
2022-07-30T08:09:40.743Z,2.10
2022-07-30T08:12:46.519Z,1.80
2022-07-30T08:15:28.401Z,2.17
2022-07-30T08:18:11.120Z,1.90
2022-07-30T08:20:52.912Z,2.00
2022-07-30T08:23:54.698Z,1.80
2022-07-30T08:26:36.570Z,1.70
2022-07-30T08:29:18.385Z,1.90
2022-07-30T08:32:00.703Z,2.17
2022-07-30T08:35:02.716Z,2.20
2022-07-30T08:37:44.723Z,1.80
2022-07-30T08:40:26.953Z,2.13
2022-07-30T08:43:08.952Z,2.00
2022-07-30T08:46:12.617Z,1.90
2022-07-30T08:48:55.057Z,1.73
2022-07-30T08:51:37.033Z,2.00
2022-07-30T08:54:19.859Z,2.27
2022-07-30T08:57:21.761Z,1.93
2022-07-30T09:00:05.688Z,1.90
2022-07-30T09:02:47.859Z,2.07
2022-07-30T09:05:29.707Z,1.93
2022-07-30T09:08:31.773Z,2.20
2022-07-30T09:11:14.053Z,2.55
2022-07-30T09:14:08.674Z,2.40
2022-07-30T09:16:58.327Z,2.13
2022-07-30T09:20:04.185Z,1.85
2022-07-30T09:22:48.479Z,2.38
2022-07-30T09:25:48.031Z,2.30
2022-07-30T09:28:32.996Z,2.20
2022-07-30T09:31:52.166Z,1.90
2022-07-30T09:34:36.464Z,2.17
2022-07-30T09:37:19.793Z,2.25
2022-07-30T09:40:12.215Z,2.25
2022-07-30T09:43:29.418Z,2.28
2022-07-30T09:46:12.734Z,2.47
2022-07-30T09:49:17.657Z,2.30
2022-07-30T09:52:00.864Z,2.30
2022-07-30T09:55:08.905Z,2.30
2022-07-30T09:57:58.915Z,2.20
2022-07-30T10:00:43.386Z,2.05
2022-07-30T10:03:34.163Z,2.30
2022-07-30T10:06:41.955Z,2.17
2022-07-30T10:09:32.237Z,2.00
2022-07-30T10:12:34.467Z,1.90
2022-07-30T10:15:20.182Z,2.00
2022-07-30T10:18:06.268Z,2.10
2022-07-30T10:20:49.118Z,1.90
2022-07-30T10:23:52.595Z,2.60
2022-07-30T10:26:35.235Z,2.33
2022-07-30T10:29:18.592Z,2.20
2022-07-30T10:32:02.066Z,2.83
2022-07-30T10:35:04.479Z,2.27
2022-07-30T10:37:51.097Z,2.30
2022-07-30T10:41:02.300Z,2.07
2022-07-30T10:44:17.715Z,2.50
2022-07-30T10:47:29.755Z,2.03
2022-07-30T10:50:22.738Z,1.90
2022-07-30T10:53:04.788Z,2.40
2022-07-30T10:56:06.551Z,2.60
2022-07-30T10:59:29.025Z,2.13
2022-07-30T11:02:11.073Z,2.77
2022-07-30T11:05:44.795Z,2.43
2022-07-30T11:08:42.697Z,2.40
2022-07-30T11:12:01.431Z,2.60
2022-07-30T11:15:06.640Z,2.73
2022-07-30T11:18:01.000Z,2.50
2022-07-30T11:20:48.647Z,2.50
2022-07-30T11:23:37.691Z,2.73
2022-07-30T11:26:38.945Z,2.60
2022-07-30T11:29:55.250Z,3.17
2022-07-30T11:32:37.253Z,2.83
2022-07-30T11:35:42.924Z,2.77
2022-07-30T11:39:16.471Z,3.07
2022-07-30T11:42:25.749Z,3.40
2022-07-30T11:45:29.787Z,3.23
2022-07-30T11:48:14.994Z,3.80
2022-07-30T11:51:00.820Z,3.60
2022-07-30T11:54:06.294Z,3.77
2022-07-30T11:57:03.649Z,3.73
2022-07-30T11:59:56.521Z,3.80
2022-07-30T12:02:38.917Z,3.90
2022-07-30T12:05:43.945Z,3.53
2022-07-30T12:08:35.202Z,4.20
2022-07-30T12:11:18.145Z,4.17
2022-07-30T12:14:02.026Z,4.10
2022-07-30T12:17:03.998Z,3.70
2022-07-30T12:19:49.113Z,3.67
2022-07-30T12:22:33.161Z,3.33
2022-07-30T12:25:15.228Z,3.90
2022-07-30T12:28:22.672Z,3.60
2022-07-30T12:31:04.601Z,4.00
2022-07-30T12:33:46.648Z,4.30
2022-07-30T12:36:33.209Z,4.40
2022-07-30T12:39:43.870Z,4.27
2022-07-30T12:42:27.157Z,6.53
2022-07-30T12:45:26.353Z,8.93
2022-07-30T12:48:11.450Z,6.43
2022-07-30T12:51:14.383Z,5.00
2022-07-30T12:53:57.206Z,4.10
2022-07-30T12:56:39.753Z,3.97
2022-07-30T12:59:22.556Z,4.63
2022-07-30T13:02:34.035Z,3.70
2022-07-30T13:05:15.950Z,3.30
2022-07-30T13:07:59.889Z,4.10
2022-07-30T13:11:00.903Z,4.07
2022-07-30T13:14:02.694Z,4.70
2022-07-30T13:16:44.610Z,3.83
2022-07-30T13:19:27.996Z,3.67
2022-07-30T13:22:09.825Z,4.03
2022-07-30T13:25:11.929Z,3.40
2022-07-30T13:27:53.739Z,3.57
2022-07-30T13:30:35.513Z,3.60
2022-07-30T13:33:17.331Z,3.67
2022-07-30T13:36:19.181Z,3.30
2022-07-30T13:39:00.988Z,3.93
2022-07-30T13:41:42.870Z,3.87
2022-07-30T13:44:24.722Z,4.00
2022-07-30T13:47:26.462Z,3.87
2022-07-30T13:50:08.502Z,3.70
2022-07-30T13:52:50.286Z,3.67
2022-07-30T13:55:32.214Z,3.93
2022-07-30T13:58:36.220Z,4.00
2022-07-30T14:01:18.644Z,5.03
2022-07-30T14:04:00.495Z,4.67
2022-07-30T14:06:42.317Z,4.17
2022-07-30T14:09:45.934Z,4.63
2022-07-30T14:12:30.166Z,5.37
2022-07-30T14:15:17.429Z,5.07
2022-07-30T14:18:01.130Z,4.33
2022-07-30T14:21:03.304Z,4.97
2022-07-30T14:23:45.170Z,4.10
2022-07-30T14:26:30.216Z,4.20
2022-07-30T14:29:18.370Z,4.57
2022-07-30T14:32:20.211Z,4.57
2022-07-30T14:35:08.920Z,3.93
2022-07-30T14:37:50.681Z,3.80
2022-07-30T14:40:32.540Z,3.10
2022-07-30T14:43:34.361Z,3.63
2022-07-30T14:46:16.404Z,3.60
2022-07-30T14:48:58.237Z,3.20
2022-07-30T14:51:40.091Z,2.90
2022-07-30T14:54:41.845Z,3.17
2022-07-30T14:57:23.664Z,3.00
2022-07-30T15:00:11.472Z,2.90
2022-07-30T15:02:53.611Z,2.80
2022-07-30T15:05:55.397Z,2.90
2022-07-30T15:08:37.207Z,2.63
2022-07-30T15:11:19.247Z,4.20
2022-07-30T15:14:04.138Z,2.93
2022-07-30T15:17:06.137Z,3.10
2022-07-30T15:19:50.637Z,2.90
2022-07-30T15:22:33.092Z,2.37
2022-07-30T15:25:14.892Z,3.03
2022-07-30T15:28:16.772Z,3.07
2022-07-30T15:30:58.670Z,2.80
2022-07-30T15:33:43.048Z,2.90
2022-07-30T15:36:29.547Z,2.80
2022-07-30T15:39:32.893Z,2.80
2022-07-30T15:42:14.899Z,2.93
2022-07-30T15:45:15.881Z,2.97
2022-07-30T15:47:58.266Z,2.90
2022-07-30T15:51:01.583Z,2.80
2022-07-30T15:53:43.402Z,2.50
2022-07-30T15:56:26.465Z,2.60
2022-07-30T15:59:08.514Z,2.57
2022-07-30T16:02:10.933Z,2.77
2022-07-30T16:04:53.289Z,2.70
2022-07-30T16:07:35.243Z,2.80
2022-07-30T16:10:17.054Z,2.57
2022-07-30T16:13:19.034Z,2.53
2022-07-30T16:16:00.915Z,2.50
2022-07-30T16:18:42.721Z,2.83
2022-07-30T16:21:24.565Z,2.50
2022-07-30T16:24:26.473Z,2.50
2022-07-30T16:27:08.393Z,2.40
2022-07-30T16:29:50.165Z,2.20
2022-07-30T16:32:32.048Z,2.80
2022-07-30T16:35:33.779Z,2.27
2022-07-30T16:38:31.302Z,2.23
2022-07-30T16:41:13.747Z,2.80
2022-07-30T16:43:55.697Z,2.67
2022-07-30T16:46:57.585Z,3.33
2022-07-30T16:49:39.574Z,2.23
2022-07-30T16:52:21.349Z,2.93
2022-07-30T16:55:08.794Z,2.40
2022-07-30T16:58:11.177Z,2.60
2022-07-30T17:00:54.081Z,2.60
2022-07-30T17:03:36.081Z,2.43
2022-07-30T17:06:17.942Z,2.73
2022-07-30T17:09:19.669Z,2.50
2022-07-30T17:12:02.438Z,2.80
2022-07-30T17:14:45.654Z,2.83
2022-07-30T17:17:28.145Z,2.70
2022-07-30T17:20:30.204Z,3.00
2022-07-30T17:23:12.258Z,2.97
2022-07-30T17:25:54.029Z,2.97
2022-07-30T17:28:36.139Z,3.40
2022-07-30T17:31:39.439Z,3.00
2022-07-30T17:34:21.360Z,2.93
2022-07-30T17:37:03.505Z,2.83
2022-07-30T17:40:19.223Z,3.53
2022-07-30T17:42:48.616Z,3.10
2022-07-30T17:45:31.258Z,3.10
2022-07-30T17:48:13.174Z,3.13
2022-07-30T17:50:55.826Z,3.73
2022-07-30T17:53:57.591Z,3.57
2022-07-30T17:56:39.397Z,4.00
2022-07-30T17:59:21.370Z,3.53
2022-07-30T18:02:04.758Z,3.47
2022-07-30T18:05:07.292Z,3.93
2022-07-30T18:07:49.106Z,3.30
2022-07-30T18:10:31.310Z,3.47
2022-07-30T18:13:26.589Z,3.83
2022-07-30T18:16:29.217Z,3.70
2022-07-30T18:19:22.528Z,3.30
2022-07-30T18:22:09.312Z,3.37
2022-07-30T18:24:51.143Z,3.80
2022-07-30T18:27:55.947Z,3.10
2022-07-30T18:30:37.866Z,3.53
2022-07-30T18:33:19.695Z,3.17
2022-07-30T18:36:01.654Z,3.03
2022-07-30T18:39:03.981Z,3.20
2022-07-30T18:41:45.800Z,3.13
2022-07-30T18:44:27.570Z,3.03
2022-07-30T18:47:09.372Z,3.20
2022-07-30T18:50:11.915Z,3.20
2022-07-30T18:52:54.319Z,3.50
2022-07-30T18:55:36.096Z,3.40
2022-07-30T18:58:18.027Z,3.10
2022-07-30T19:01:19.964Z,3.37
2022-07-30T19:04:01.867Z,3.10
2022-07-30T19:06:43.945Z,3.03
2022-07-30T19:09:25.961Z,3.40
2022-07-30T19:12:28.017Z,2.83
2022-07-30T19:15:14.046Z,2.80
2022-07-30T19:17:57.580Z,4.00
2022-07-30T19:20:39.386Z,3.40
2022-07-30T19:23:41.138Z,3.20
2022-07-30T19:26:23.330Z,3.93
2022-07-30T19:29:07.761Z,3.30
2022-07-30T19:31:49.597Z,3.57
2022-07-30T19:34:51.318Z,3.50
2022-07-30T19:37:33.115Z,3.70
2022-07-30T19:40:14.949Z,3.23
2022-07-30T19:43:09.462Z,3.70
2022-07-30T19:46:12.032Z,3.93
2022-07-30T19:48:54.073Z,3.40
2022-07-30T19:52:17.666Z,3.93
2022-07-30T19:54:39.074Z,3.43
2022-07-30T19:57:45.691Z,3.23
2022-07-30T20:00:36.554Z,3.50
2022-07-30T20:03:25.987Z,3.47
2022-07-30T20:06:19.147Z,3.50
2022-07-30T20:09:22.208Z,3.57
2022-07-30T20:12:04.636Z,3.73
2022-07-30T20:14:46.982Z,3.40
2022-07-30T20:17:30.572Z,3.17
2022-07-30T20:20:36.763Z,3.90
2022-07-30T20:23:22.678Z,3.77
2022-07-30T20:26:12.456Z,3.47
2022-07-30T20:28:54.839Z,3.43
2022-07-30T20:31:59.030Z,3.00
2022-07-30T20:34:40.858Z,3.30
2022-07-30T20:37:22.853Z,3.80
2022-07-30T20:40:08.602Z,3.20
2022-07-30T20:43:10.362Z,3.30
2022-07-30T20:45:52.222Z,3.40
2022-07-30T20:48:36.840Z,3.43
2022-07-30T20:51:20.364Z,3.30
2022-07-30T20:54:22.578Z,3.63
2022-07-30T20:57:15.547Z,3.80
2022-07-30T20:59:57.748Z,3.97
2022-07-30T21:02:39.544Z,3.90
2022-07-30T21:05:43.034Z,4.03
2022-07-30T21:08:25.582Z,4.17
2022-07-30T21:11:28.050Z,4.30
2022-07-30T21:14:11.684Z,4.73
2022-07-30T21:17:00.078Z,4.70
2022-07-30T21:19:41.947Z,4.70
2022-07-30T21:22:44.162Z,4.53
2022-07-30T21:25:33.145Z,5.03
2022-07-30T21:28:27.196Z,5.03
2022-07-30T21:31:09.814Z,4.57
2022-07-30T21:34:11.562Z,4.67
2022-07-30T21:36:53.579Z,4.90
2022-07-30T21:39:39.665Z,5.13
2022-07-30T21:42:29.380Z,4.60
2022-07-30T21:45:38.106Z,5.37
2022-07-30T21:48:20.775Z,4.80
2022-07-30T21:51:23.413Z,4.60
2022-07-30T21:54:08.693Z,5.40
2022-07-30T21:56:51.467Z,4.80
2022-07-30T21:59:33.294Z,4.37
2022-07-30T22:02:35.027Z,5.27
2022-07-30T22:05:16.913Z,5.13
2022-07-30T22:07:58.682Z,5.40
2022-07-30T22:10:42.008Z,5.10
2022-07-30T22:13:51.246Z,4.60
2022-07-30T22:16:35.958Z,5.00
2022-07-30T22:19:17.768Z,4.70
2022-07-30T22:22:26.106Z,5.00
2022-07-30T22:25:23.737Z,5.00
2022-07-30T22:28:21.706Z,5.57
2022-07-30T22:31:05.650Z,5.00
2022-07-30T22:33:49.918Z,5.03
2022-07-30T22:36:52.789Z,4.50
2022-07-30T22:39:50.713Z,5.03
2022-07-30T22:42:34.333Z,4.47
2022-07-30T22:45:44.828Z,4.60
2022-07-30T22:48:50.207Z,4.63
2022-07-30T22:52:01.514Z,4.47
2022-07-30T22:54:34.678Z,4.70
2022-07-30T22:57:16.528Z,5.00
2022-07-30T23:00:27.400Z,5.20
2022-07-30T23:03:10.194Z,4.13
2022-07-30T23:05:54.989Z,4.77
2022-07-30T23:08:38.681Z,4.67
2022-07-30T23:11:40.674Z,4.40
2022-07-30T23:14:22.470Z,4.63
2022-07-30T23:17:04.426Z,4.80
2022-07-30T23:19:46.468Z,4.70
2022-07-30T23:22:48.989Z,5.20
2022-07-30T23:25:38.426Z,5.17
2022-07-30T23:28:21.336Z,5.37
2022-07-30T23:31:04.125Z,4.90
2022-07-30T23:34:06.420Z,5.43
2022-07-30T23:36:48.286Z,5.00
2022-07-30T23:39:30.078Z,5.07
2022-07-30T23:42:11.953Z,5.83
2022-07-30T23:45:13.967Z,5.93
2022-07-30T23:48:01.843Z,5.07
2022-07-30T23:50:45.085Z,4.93
2022-07-30T23:53:26.897Z,5.47
2022-07-30T23:56:28.683Z,5.53
2022-07-30T23:59:12.418Z,5.43
